sensor_id;sensor_type;location;lat;lon;timestamp;pressure;altitude;pressure_sealevel;temperature;humidity
62592;BME280;48659;41.622;2.276;2022-12-18T00:00:07;100530.25;;;8.07;61.38
62592;BME280;48659;41.622;2.276;2022-12-18T00:02:35;100525.47;;;8.01;59.86
62592;BME280;48659;41.622;2.276;2022-12-18T00:05:04;100531.30;;;7.96;60.79
62592;BME280;48659;41.622;2.276;2022-12-18T00:07:31;100532.97;;;7.96;61.05
62592;BME280;48659;41.622;2.276;2022-12-18T00:09:59;100540.81;;;6.02;64.95
62592;BME280;48659;41.622;2.276;2022-12-18T00:12:33;100531.44;;;7.67;59.45
62592;BME280;48659;41.622;2.276;2022-12-18T00:15:00;100536.12;;;8.49;58.76
62592;BME280;48659;41.622;2.276;2022-12-18T00:17:27;100536.22;;;7.92;58.59
62592;BME280;48659;41.622;2.276;2022-12-18T00:19:54;100536.07;;;8.59;57.72
62592;BME280;48659;41.622;2.276;2022-12-18T00:22:21;100536.60;;;8.83;57.03
62592;BME280;48659;41.622;2.276;2022-12-18T00:24:49;100539.16;;;8.96;56.24
62592;BME280;48659;41.622;2.276;2022-12-18T00:27:16;100543.20;;;9.16;56.61
62592;BME280;48659;41.622;2.276;2022-12-18T00:29:44;100549.35;;;9.24;55.99
62592;BME280;48659;41.622;2.276;2022-12-18T00:32:11;100546.48;;;9.11;56.37
62592;BME280;48659;41.622;2.276;2022-12-18T00:34:38;100553.83;;;8.55;57.32
62592;BME280;48659;41.622;2.276;2022-12-18T00:37:06;100552.21;;;9.32;55.98
62592;BME280;48659;41.622;2.276;2022-12-18T00:39:34;100556.07;;;9.00;56.05
62592;BME280;48659;41.622;2.276;2022-12-18T00:42:01;100557.19;;;8.91;56.56
62592;BME280;48659;41.622;2.276;2022-12-18T00:44:33;100562.89;;;8.34;56.86
62592;BME280;48659;41.622;2.276;2022-12-18T00:47:01;100567.99;;;8.17;57.41
62592;BME280;48659;41.622;2.276;2022-12-18T00:49:33;100568.76;;;7.29;58.36
62592;BME280;48659;41.622;2.276;2022-12-18T00:52:01;100575.97;;;5.99;64.00
62592;BME280;48659;41.622;2.276;2022-12-18T00:54:29;100571.55;;;7.52;59.28
62592;BME280;48659;41.622;2.276;2022-12-18T00:56:55;100572.10;;;8.71;57.31
62592;BME280;48659;41.622;2.276;2022-12-18T00:59:23;100575.52;;;7.59;58.90
62592;BME280;48659;41.622;2.276;2022-12-18T01:01:50;100576.75;;;8.19;57.40
62592;BME280;48659;41.622;2.276;2022-12-18T01:04:18;100582.10;;;7.96;57.58
62592;BME280;48659;41.622;2.276;2022-12-18T01:06:45;100582.87;;;8.06;57.45
62592;BME280;48659;41.622;2.276;2022-12-18T01:09:13;100583.30;;;7.98;58.61
62592;BME280;48659;41.622;2.276;2022-12-18T01:11:41;100587.47;;;6.85;59.75
62592;BME280;48659;41.622;2.276;2022-12-18T01:14:08;100585.57;;;7.70;58.95
62592;BME280;48659;41.622;2.276;2022-12-18T01:16:35;100590.83;;;7.03;59.95
62592;BME280;48659;41.622;2.276;2022-12-18T01:19:02;100594.15;;;6.86;62.05
62592;BME280;48659;41.622;2.276;2022-12-18T01:21:29;100598.98;;;6.72;61.68
62592;BME280;48659;41.622;2.276;2022-12-18T01:23:56;100610.21;;;5.38;64.51
62592;BME280;48659;41.622;2.276;2022-12-18T01:26:26;100612.86;;;5.08;67.50
62592;BME280;48659;41.622;2.276;2022-12-18T01:28:54;100606.43;;;7.03;61.42
62592;BME280;48659;41.622;2.276;2022-12-18T01:31:24;100606.22;;;7.29;59.54
62592;BME280;48659;41.622;2.276;2022-12-18T01:33:53;100608.23;;;7.91;57.63
62592;BME280;48659;41.622;2.276;2022-12-18T01:36:22;100612.07;;;7.86;57.43
62592;BME280;48659;41.622;2.276;2022-12-18T01:38:50;100613.68;;;7.92;56.85
62592;BME280;48659;41.622;2.276;2022-12-18T01:41:19;100616.60;;;7.33;58.27
62592;BME280;48659;41.622;2.276;2022-12-18T01:43:51;100616.22;;;7.03;58.61
62592;BME280;48659;41.622;2.276;2022-12-18T01:46:20;100614.64;;;7.77;57.64
62592;BME280;48659;41.622;2.276;2022-12-18T01:48:50;100614.02;;;8.11;56.92
62592;BME280;48659;41.622;2.276;2022-12-18T01:51:19;100616.00;;;7.83;57.53
62592;BME280;48659;41.622;2.276;2022-12-18T01:53:47;100616.50;;;7.68;58.30
62592;BME280;48659;41.622;2.276;2022-12-18T01:56:16;100617.47;;;7.43;58.99
62592;BME280;48659;41.622;2.276;2022-12-18T01:58:53;100630.57;;;5.84;62.67
62592;BME280;48659;41.622;2.276;2022-12-18T02:01:23;100622.79;;;7.44;58.90
62592;BME280;48659;41.622;2.276;2022-12-18T02:03:51;100631.78;;;6.93;59.50
62592;BME280;48659;41.622;2.276;2022-12-18T02:06:22;100635.31;;;7.78;57.87
62592;BME280;48659;41.622;2.276;2022-12-18T02:09:01;100637.35;;;7.58;57.46
62592;BME280;48659;41.622;2.276;2022-12-18T02:11:39;100642.82;;;8.27;56.40
62592;BME280;48659;41.622;2.276;2022-12-18T02:14:17;100644.05;;;8.65;55.34
62592;BME280;48659;41.622;2.276;2022-12-18T02:16:52;100649.90;;;7.49;56.32
62592;BME280;48659;41.622;2.276;2022-12-18T02:19:39;100656.29;;;7.39;57.28
62592;BME280;48659;41.622;2.276;2022-12-18T02:22:20;100655.71;;;7.01;58.10
62592;BME280;48659;41.622;2.276;2022-12-18T02:25:00;100657.87;;;7.66;57.20
62592;BME280;48659;41.622;2.276;2022-12-18T02:27:32;100658.54;;;7.58;57.33
62592;BME280;48659;41.622;2.276;2022-12-18T02:30:02;100661.71;;;7.20;57.82
62592;BME280;48659;41.622;2.276;2022-12-18T02:32:38;100663.61;;;6.73;57.76
62592;BME280;48659;41.622;2.276;2022-12-18T02:35:17;100671.15;;;7.08;58.73
62592;BME280;48659;41.622;2.276;2022-12-18T02:37:47;100671.39;;;5.81;61.55
62592;BME280;48659;41.622;2.276;2022-12-18T02:40:17;100675.33;;;7.11;58.97
62592;BME280;48659;41.622;2.276;2022-12-18T02:42:46;100678.65;;;4.22;65.59
62592;BME280;48659;41.622;2.276;2022-12-18T02:45:13;100683.77;;;4.10;69.88
62592;BME280;48659;41.622;2.276;2022-12-18T02:47:43;100678.33;;;5.93;63.26
62592;BME280;48659;41.622;2.276;2022-12-18T02:50:26;100681.51;;;5.97;61.51
62592;BME280;48659;41.622;2.276;2022-12-18T02:53:03;100677.02;;;7.23;58.38
62592;BME280;48659;41.622;2.276;2022-12-18T02:55:43;100688.87;;;7.05;58.60
62592;BME280;48659;41.622;2.276;2022-12-18T02:58:17;100694.67;;;7.03;59.41
62592;BME280;48659;41.622;2.276;2022-12-18T03:00:52;100698.88;;;6.01;59.94
62592;BME280;48659;41.622;2.276;2022-12-18T03:03:25;100701.20;;;7.34;58.39
62592;BME280;48659;41.622;2.276;2022-12-18T03:06:07;100703.46;;;7.30;58.25
62592;BME280;48659;41.622;2.276;2022-12-18T03:08:39;100710.70;;;6.58;60.13
62592;BME280;48659;41.622;2.276;2022-12-18T03:11:10;100707.62;;;7.09;59.01
62592;BME280;48659;41.622;2.276;2022-12-18T03:13:42;100701.71;;;7.45;57.91
62592;BME280;48659;41.622;2.276;2022-12-18T03:16:12;100702.86;;;7.94;56.40
62592;BME280;48659;41.622;2.276;2022-12-18T03:18:45;100713.08;;;7.27;57.44
62592;BME280;48659;41.622;2.276;2022-12-18T03:21:14;100708.19;;;7.71;57.55
62592;BME280;48659;41.622;2.276;2022-12-18T03:23:48;100714.32;;;7.48;56.89
62592;BME280;48659;41.622;2.276;2022-12-18T03:26:23;100714.05;;;7.05;57.62
62592;BME280;48659;41.622;2.276;2022-12-18T03:28:55;100719.82;;;7.31;57.36
62592;BME280;48659;41.622;2.276;2022-12-18T03:31:38;100725.25;;;6.60;59.39
62592;BME280;48659;41.622;2.276;2022-12-18T03:34:11;100725.42;;;5.12;61.22
62592;BME280;48659;41.622;2.276;2022-12-18T03:36:40;100729.30;;;6.57;59.45
62592;BME280;48659;41.622;2.276;2022-12-18T03:39:07;100725.15;;;5.24;62.11
62592;BME280;48659;41.622;2.276;2022-12-18T03:41:43;100726.91;;;5.58;59.55
62592;BME280;48659;41.622;2.276;2022-12-18T03:44:13;100727.24;;;6.50;59.52
62592;BME280;48659;41.622;2.276;2022-12-18T03:46:46;100733.96;;;6.47;58.88
62592;BME280;48659;41.622;2.276;2022-12-18T03:49:22;100729.25;;;7.05;58.70
62592;BME280;48659;41.622;2.276;2022-12-18T03:51:54;100718.52;;;7.85;56.57
62592;BME280;48659;41.622;2.276;2022-12-18T03:54:23;100722.29;;;7.61;58.15
62592;BME280;48659;41.622;2.276;2022-12-18T03:56:58;100721.97;;;6.49;58.80
62592;BME280;48659;41.622;2.276;2022-12-18T03:59:32;100724.98;;;6.49;58.76
62592;BME280;48659;41.622;2.276;2022-12-18T04:02:01;100723.87;;;6.89;57.84
62592;BME280;48659;41.622;2.276;2022-12-18T04:04:36;100724.48;;;4.17;61.50
62592;BME280;48659;41.622;2.276;2022-12-18T04:07:05;100722.99;;;5.43;63.64
62592;BME280;48659;41.622;2.276;2022-12-18T04:09:36;100723.67;;;3.61;65.93
62592;BME280;48659;41.622;2.276;2022-12-18T04:12:05;100712.57;;;4.80;65.60
62592;BME280;48659;41.622;2.276;2022-12-18T04:14:32;100711.37;;;6.08;61.32
62592;BME280;48659;41.622;2.276;2022-12-18T04:17:01;100714.35;;;7.12;59.29
62592;BME280;48659;41.622;2.276;2022-12-18T04:19:29;100717.10;;;6.39;59.21
62592;BME280;48659;41.622;2.276;2022-12-18T04:21:57;100718.26;;;6.96;58.54
62592;BME280;48659;41.622;2.276;2022-12-18T04:24:24;100721.19;;;6.84;59.13
62592;BME280;48659;41.622;2.276;2022-12-18T04:26:51;100714.84;;;7.34;57.76
62592;BME280;48659;41.622;2.276;2022-12-18T04:29:19;100714.32;;;7.32;57.36
62592;BME280;48659;41.622;2.276;2022-12-18T04:31:46;100718.97;;;6.64;58.46
62592;BME280;48659;41.622;2.276;2022-12-18T04:34:14;100717.55;;;5.98;60.33
62592;BME280;48659;41.622;2.276;2022-12-18T04:36:42;100716.89;;;6.55;58.14
62592;BME280;48659;41.622;2.276;2022-12-18T04:39:09;100713.82;;;5.47;61.06
62592;BME280;48659;41.622;2.276;2022-12-18T04:41:36;100719.23;;;6.66;58.77
62592;BME280;48659;41.622;2.276;2022-12-18T04:44:04;100718.50;;;6.23;60.96
62592;BME280;48659;41.622;2.276;2022-12-18T04:46:34;100721.63;;;5.52;60.74
62592;BME280;48659;41.622;2.276;2022-12-18T04:49:01;100723.42;;;5.24;61.50
62592;BME280;48659;41.622;2.276;2022-12-18T04:51:29;100726.06;;;5.34;62.39
62592;BME280;48659;41.622;2.276;2022-12-18T04:53:57;100734.96;;;4.23;67.17
62592;BME280;48659;41.622;2.276;2022-12-18T04:56:24;100730.84;;;4.16;66.95
62592;BME280;48659;41.622;2.276;2022-12-18T04:58:51;100731.39;;;5.38;64.87
62592;BME280;48659;41.622;2.276;2022-12-18T05:01:18;100732.65;;;5.58;63.07
62592;BME280;48659;41.622;2.276;2022-12-18T05:03:46;100737.80;;;4.89;63.83
62592;BME280;48659;41.622;2.276;2022-12-18T05:06:13;100742.78;;;5.10;64.45
62592;BME280;48659;41.622;2.276;2022-12-18T05:08:41;100747.63;;;5.40;62.98
62592;BME280;48659;41.622;2.276;2022-12-18T05:11:10;100751.89;;;5.49;64.05
62592;BME280;48659;41.622;2.276;2022-12-18T05:13:38;100749.97;;;6.15;63.07
62592;BME280;48659;41.622;2.276;2022-12-18T05:16:06;100758.68;;;4.51;65.09
62592;BME280;48659;41.622;2.276;2022-12-18T05:18:35;100756.84;;;5.22;65.11
62592;BME280;48659;41.622;2.276;2022-12-18T05:21:02;100753.26;;;6.68;60.64
62592;BME280;48659;41.622;2.276;2022-12-18T05:23:35;100760.29;;;4.85;63.78
62592;BME280;48659;41.622;2.276;2022-12-18T05:26:05;100760.02;;;4.95;63.23
62592;BME280;48659;41.622;2.276;2022-12-18T05:28:35;100758.61;;;4.79;64.50
62592;BME280;48659;41.622;2.276;2022-12-18T05:31:04;100766.34;;;5.50;64.15
62592;BME280;48659;41.622;2.276;2022-12-18T05:33:34;100771.74;;;5.20;64.25
62592;BME280;48659;41.622;2.276;2022-12-18T05:36:03;100773.40;;;3.46;68.64
62592;BME280;48659;41.622;2.276;2022-12-18T05:38:32;100780.09;;;3.00;69.72
62592;BME280;48659;41.622;2.276;2022-12-18T05:41:01;100779.14;;;5.31;64.87
62592;BME280;48659;41.622;2.276;2022-12-18T05:43:35;100780.38;;;5.78;61.87
62592;BME280;48659;41.622;2.276;2022-12-18T05:46:05;100782.53;;;5.95;62.71
62592;BME280;48659;41.622;2.276;2022-12-18T05:48:32;100790.06;;;4.77;64.30
62592;BME280;48659;41.622;2.276;2022-12-18T05:51:05;100796.68;;;5.12;64.09
62592;BME280;48659;41.622;2.276;2022-12-18T05:53:33;100806.27;;;3.77;67.43
62592;BME280;48659;41.622;2.276;2022-12-18T05:56:03;100809.21;;;5.66;63.57
62592;BME280;48659;41.622;2.276;2022-12-18T05:58:32;100812.45;;;4.34;65.46
62592;BME280;48659;41.622;2.276;2022-12-18T06:01:07;100822.34;;;4.74;64.44
62592;BME280;48659;41.622;2.276;2022-12-18T06:03:35;100826.76;;;5.19;64.38
62592;BME280;48659;41.622;2.276;2022-12-18T06:06:03;100826.39;;;5.36;65.21
62592;BME280;48659;41.622;2.276;2022-12-18T06:08:31;100827.06;;;5.96;62.11
62592;BME280;48659;41.622;2.276;2022-12-18T06:10:58;100829.66;;;5.11;61.46
62592;BME280;48659;41.622;2.276;2022-12-18T06:13:26;100834.20;;;5.28;62.62
62592;BME280;48659;41.622;2.276;2022-12-18T06:15:53;100841.07;;;6.09;61.36
62592;BME280;48659;41.622;2.276;2022-12-18T06:18:20;100845.16;;;6.65;59.32
62592;BME280;48659;41.622;2.276;2022-12-18T06:20:55;100851.22;;;6.38;59.51
62592;BME280;48659;41.622;2.276;2022-12-18T06:23:22;100854.67;;;6.88;59.13
62592;BME280;48659;41.622;2.276;2022-12-18T06:25:51;100864.09;;;5.84;61.04
62592;BME280;48659;41.622;2.276;2022-12-18T06:28:19;100860.90;;;6.75;59.00
62592;BME280;48659;41.622;2.276;2022-12-18T06:30:47;100867.83;;;6.40;58.05
62592;BME280;48659;41.622;2.276;2022-12-18T06:33:15;100874.37;;;6.40;58.68
62592;BME280;48659;41.622;2.276;2022-12-18T06:35:43;100878.90;;;5.27;60.99
62592;BME280;48659;41.622;2.276;2022-12-18T06:38:10;100875.70;;;5.94;61.55
62592;BME280;48659;41.622;2.276;2022-12-18T06:40:38;100873.09;;;5.77;61.05
62592;BME280;48659;41.622;2.276;2022-12-18T06:43:05;100878.28;;;4.58;63.95
62592;BME280;48659;41.622;2.276;2022-12-18T06:45:32;100885.11;;;5.67;61.58
62592;BME280;48659;41.622;2.276;2022-12-18T06:48:00;100885.16;;;6.03;59.98
62592;BME280;48659;41.622;2.276;2022-12-18T06:50:28;100887.62;;;6.24;61.20
62592;BME280;48659;41.622;2.276;2022-12-18T06:52:55;100889.32;;;4.93;62.13
62592;BME280;48659;41.622;2.276;2022-12-18T06:55:22;100893.61;;;5.48;62.03
62592;BME280;48659;41.622;2.276;2022-12-18T06:57:50;100895.92;;;4.64;62.33
62592;BME280;48659;41.622;2.276;2022-12-18T07:00:18;100896.17;;;5.64;59.84
62592;BME280;48659;41.622;2.276;2022-12-18T07:02:45;100895.18;;;6.66;57.64
62592;BME280;48659;41.622;2.276;2022-12-18T07:05:14;100894.36;;;5.89;60.65
62592;BME280;48659;41.622;2.276;2022-12-18T07:07:41;100896.14;;;5.42;61.85
62592;BME280;48659;41.622;2.276;2022-12-18T07:10:09;100889.83;;;6.34;59.81
62592;BME280;48659;41.622;2.276;2022-12-18T07:12:37;100894.89;;;5.65;60.89
62592;BME280;48659;41.622;2.276;2022-12-18T07:15:06;100890.58;;;6.22;59.40
62592;BME280;48659;41.622;2.276;2022-12-18T07:17:34;100896.92;;;6.56;58.79
62592;BME280;48659;41.622;2.276;2022-12-18T07:20:02;100904.76;;;5.30;61.88
62592;BME280;48659;41.622;2.276;2022-12-18T07:22:29;100905.58;;;5.95;59.82
62592;BME280;48659;41.622;2.276;2022-12-18T07:24:57;100910.61;;;6.45;58.86
62592;BME280;48659;41.622;2.276;2022-12-18T07:27:24;100910.68;;;6.64;57.93
62592;BME280;48659;41.622;2.276;2022-12-18T07:29:52;100914.97;;;4.95;61.58
62592;BME280;48659;41.622;2.276;2022-12-18T07:32:19;100914.21;;;5.73;60.78
62592;BME280;48659;41.622;2.276;2022-12-18T07:34:46;100907.45;;;6.10;59.99
62592;BME280;48659;41.622;2.276;2022-12-18T07:37:13;100910.57;;;5.47;63.04
62592;BME280;48659;41.622;2.276;2022-12-18T07:39:40;100910.29;;;4.29;65.15
62592;BME280;48659;41.622;2.276;2022-12-18T07:42:08;100903.39;;;5.88;62.31
62592;BME280;48659;41.622;2.276;2022-12-18T07:44:35;100901.88;;;4.79;63.11
62592;BME280;48659;41.622;2.276;2022-12-18T07:47:04;100905.38;;;4.33;65.93
62592;BME280;48659;41.622;2.276;2022-12-18T07:49:32;100910.05;;;5.28;64.86
62592;BME280;48659;41.622;2.276;2022-12-18T07:51:59;100910.85;;;6.16;61.24
62592;BME280;48659;41.622;2.276;2022-12-18T07:54:26;100905.62;;;6.16;60.13
62592;BME280;48659;41.622;2.276;2022-12-18T07:56:54;100908.42;;;5.04;63.01
62592;BME280;48659;41.622;2.276;2022-12-18T07:59:21;100907.02;;;6.60;60.82
62592;BME280;48659;41.622;2.276;2022-12-18T08:01:48;100907.65;;;5.33;63.14
62592;BME280;48659;41.622;2.276;2022-12-18T08:04:16;100907.53;;;5.08;63.32
62592;BME280;48659;41.622;2.276;2022-12-18T08:06:44;100908.23;;;6.53;60.15
62592;BME280;48659;41.622;2.276;2022-12-18T08:09:11;100911.95;;;6.32;60.62
62592;BME280;48659;41.622;2.276;2022-12-18T08:11:38;100918.64;;;5.69;61.49
62592;BME280;48659;41.622;2.276;2022-12-18T08:14:06;100920.10;;;5.74;61.98
62592;BME280;48659;41.622;2.276;2022-12-18T08:16:33;100928.17;;;4.56;66.16
62592;BME280;48659;41.622;2.276;2022-12-18T08:19:01;100924.47;;;6.02;63.51
62592;BME280;48659;41.622;2.276;2022-12-18T08:21:30;100919.75;;;6.50;60.48
62592;BME280;48659;41.622;2.276;2022-12-18T08:24:00;100924.67;;;7.79;57.52
62592;BME280;48659;41.622;2.276;2022-12-18T08:26:30;100928.00;;;8.57;56.11
62592;BME280;48659;41.622;2.276;2022-12-18T08:28:59;100929.37;;;8.62;55.07
62592;BME280;48659;41.622;2.276;2022-12-18T08:31:28;100934.62;;;8.54;54.40
62592;BME280;48659;41.622;2.276;2022-12-18T08:33:56;100936.01;;;8.95;53.77
62592;BME280;48659;41.622;2.276;2022-12-18T08:36:24;100930.77;;;9.11;53.27
62592;BME280;48659;41.622;2.276;2022-12-18T08:38:52;100933.21;;;9.57;52.77
62592;BME280;48659;41.622;2.276;2022-12-18T08:41:20;100939.69;;;9.67;52.27
62592;BME280;48659;41.622;2.276;2022-12-18T08:43:48;100946.53;;;9.51;52.58
62592;BME280;48659;41.622;2.276;2022-12-18T08:46:16;100950.89;;;9.69;52.00
62592;BME280;48659;41.622;2.276;2022-12-18T08:48:44;100950.78;;;9.74;51.11
62592;BME280;48659;41.622;2.276;2022-12-18T08:51:15;100947.64;;;9.80;51.57
62592;BME280;48659;41.622;2.276;2022-12-18T08:53:42;100957.80;;;9.93;50.95
62592;BME280;48659;41.622;2.276;2022-12-18T08:56:10;100966.82;;;8.92;52.98
62592;BME280;48659;41.622;2.276;2022-12-18T08:58:38;100964.68;;;9.52;52.45
62592;BME280;48659;41.622;2.276;2022-12-18T09:01:07;100967.95;;;10.20;54.60
62592;BME280;48659;41.622;2.276;2022-12-18T09:03:35;100967.49;;;10.61;53.08
62592;BME280;48659;41.622;2.276;2022-12-18T09:06:03;100968.97;;;10.68;50.73
62592;BME280;48659;41.622;2.276;2022-12-18T09:08:31;100970.98;;;10.89;51.10
62592;BME280;48659;41.622;2.276;2022-12-18T09:10:58;100971.43;;;10.53;50.76
62592;BME280;48659;41.622;2.276;2022-12-18T09:13:26;100976.13;;;10.93;50.61
62592;BME280;48659;41.622;2.276;2022-12-18T09:15:54;100978.76;;;10.89;50.16
62592;BME280;48659;41.622;2.276;2022-12-18T09:18:22;100981.51;;;11.08;50.70
62592;BME280;48659;41.622;2.276;2022-12-18T09:20:50;100981.72;;;10.51;52.04
62592;BME280;48659;41.622;2.276;2022-12-18T09:23:19;100984.93;;;10.79;51.25
62592;BME280;48659;41.622;2.276;2022-12-18T09:25:46;100983.99;;;11.02;50.65
62592;BME280;48659;41.622;2.276;2022-12-18T09:28:16;100985.48;;;11.06;51.42
62592;BME280;48659;41.622;2.276;2022-12-18T09:30:46;100984.16;;;11.48;51.44
62592;BME280;48659;41.622;2.276;2022-12-18T09:33:14;100985.38;;;11.40;49.35
62592;BME280;48659;41.622;2.276;2022-12-18T09:35:43;100984.59;;;11.15;49.40
62592;BME280;48659;41.622;2.276;2022-12-18T09:38:13;100989.37;;;11.57;50.20
62592;BME280;48659;41.622;2.276;2022-12-18T09:40:42;100993.43;;;11.37;49.43
62592;BME280;48659;41.622;2.276;2022-12-18T09:43:15;100993.53;;;11.61;49.91
62592;BME280;48659;41.622;2.276;2022-12-18T09:45:47;100997.20;;;11.52;49.22
62592;BME280;48659;41.622;2.276;2022-12-18T09:48:20;101001.75;;;11.16;49.64
62592;BME280;48659;41.622;2.276;2022-12-18T09:50:50;101005.41;;;11.14;49.82
62592;BME280;48659;41.622;2.276;2022-12-18T09:53:24;101004.83;;;11.86;49.11
62592;BME280;48659;41.622;2.276;2022-12-18T09:55:54;101004.97;;;11.48;49.29
62592;BME280;48659;41.622;2.276;2022-12-18T09:58:39;101004.14;;;11.68;49.10
62592;BME280;48659;41.622;2.276;2022-12-18T10:01:10;101009.89;;;11.57;49.22
62592;BME280;48659;41.622;2.276;2022-12-18T10:03:38;101015.14;;;11.66;47.86
62592;BME280;48659;41.622;2.276;2022-12-18T10:06:08;101016.37;;;12.09;48.28
62592;BME280;48659;41.622;2.276;2022-12-18T10:08:43;101010.25;;;12.22;48.62
62592;BME280;48659;41.622;2.276;2022-12-18T10:11:25;101012.43;;;12.29;49.07
62592;BME280;48659;41.622;2.276;2022-12-18T10:13:55;101012.72;;;12.34;48.90
62592;BME280;48659;41.622;2.276;2022-12-18T10:16:30;101014.19;;;12.47;49.49
62592;BME280;48659;41.622;2.276;2022-12-18T10:19:11;101012.75;;;12.94;47.72
62592;BME280;48659;41.622;2.276;2022-12-18T10:21:48;101014.18;;;12.59;48.14
62592;BME280;48659;41.622;2.276;2022-12-18T10:24:23;101011.64;;;12.89;47.64
62592;BME280;48659;41.622;2.276;2022-12-18T10:26:56;101006.71;;;13.17;47.16
62592;BME280;48659;41.622;2.276;2022-12-18T10:29:33;101003.60;;;12.60;47.88
62592;BME280;48659;41.622;2.276;2022-12-18T10:32:00;101003.70;;;13.04;47.90
62592;BME280;48659;41.622;2.276;2022-12-18T10:34:28;101005.70;;;12.74;48.34
62592;BME280;48659;41.622;2.276;2022-12-18T10:36:56;101004.66;;;12.89;48.18
62592;BME280;48659;41.622;2.276;2022-12-18T10:39:24;101003.04;;;13.09;48.19
62592;BME280;48659;41.622;2.276;2022-12-18T10:41:52;100998.06;;;13.26;47.93
62592;BME280;48659;41.622;2.276;2022-12-18T10:44:36;100997.80;;;13.17;48.26
62592;BME280;48659;41.622;2.276;2022-12-18T10:47:06;101000.35;;;13.41;48.22
62592;BME280;48659;41.622;2.276;2022-12-18T10:49:42;100997.36;;;12.74;48.01
62592;BME280;48659;41.622;2.276;2022-12-18T10:52:17;100995.72;;;13.34;47.17
62592;BME280;48659;41.622;2.276;2022-12-18T10:54:48;100992.43;;;13.30;47.17
62592;BME280;48659;41.622;2.276;2022-12-18T10:57:28;100996.64;;;13.11;47.30
62592;BME280;48659;41.622;2.276;2022-12-18T10:59:59;100999.87;;;13.31;47.22
62592;BME280;48659;41.622;2.276;2022-12-18T11:02:34;100996.39;;;12.94;48.41
62592;BME280;48659;41.622;2.276;2022-12-18T11:05:03;100993.23;;;12.89;48.17
62592;BME280;48659;41.622;2.276;2022-12-18T11:07:50;100983.26;;;13.91;46.89
62592;BME280;48659;41.622;2.276;2022-12-18T11:10:19;100982.32;;;13.29;47.53
62592;BME280;48659;41.622;2.276;2022-12-18T11:12:46;100982.20;;;13.32;47.47
62592;BME280;48659;41.622;2.276;2022-12-18T11:15:18;100982.80;;;13.98;46.94
62592;BME280;48659;41.622;2.276;2022-12-18T11:17:48;100980.17;;;14.23;46.84
62592;BME280;48659;41.622;2.276;2022-12-18T11:20:28;100975.66;;;14.02;46.37
62592;BME280;48659;41.622;2.276;2022-12-18T11:22:59;100967.77;;;14.22;46.33
62592;BME280;48659;41.622;2.276;2022-12-18T11:25:31;100963.45;;;14.09;46.41
62592;BME280;48659;41.622;2.276;2022-12-18T11:28:04;100965.16;;;12.94;47.69
62592;BME280;48659;41.622;2.276;2022-12-18T11:30:34;100958.41;;;14.39;46.09
62592;BME280;48659;41.622;2.276;2022-12-18T11:33:05;100957.25;;;14.29;45.80
62592;BME280;48659;41.622;2.276;2022-12-18T11:35:40;100956.16;;;13.34;47.03
62592;BME280;48659;41.622;2.276;2022-12-18T11:38:18;100957.38;;;14.48;45.49
62592;BME280;48659;41.622;2.276;2022-12-18T11:40:53;100961.03;;;14.32;45.93
62592;BME280;48659;41.622;2.276;2022-12-18T11:43:28;100957.57;;;14.58;45.46
62592;BME280;48659;41.622;2.276;2022-12-18T11:46:02;100952.34;;;14.54;45.06
62592;BME280;48659;41.622;2.276;2022-12-18T11:48:34;100950.57;;;14.39;44.99
62592;BME280;48659;41.622;2.276;2022-12-18T11:51:09;100950.88;;;14.34;45.16
62592;BME280;48659;41.622;2.276;2022-12-18T11:53:38;100951.49;;;13.65;46.73
62592;BME280;48659;41.622;2.276;2022-12-18T11:56:27;100950.78;;;12.62;47.53
62592;BME280;48659;41.622;2.276;2022-12-18T11:59:04;100940.84;;;14.08;45.16
62592;BME280;48659;41.622;2.276;2022-12-18T12:01:43;100938.11;;;14.06;44.95
62592;BME280;48659;41.622;2.276;2022-12-18T12:04:25;100936.77;;;13.49;46.35
62592;BME280;48659;41.622;2.276;2022-12-18T12:07:03;100931.05;;;13.44;45.82
62592;BME280;48659;41.622;2.276;2022-12-18T12:09:46;100930.10;;;13.63;46.26
62592;BME280;48659;41.622;2.276;2022-12-18T12:12:28;100927.66;;;13.49;46.45
62592;BME280;48659;41.622;2.276;2022-12-18T12:15:06;100929.30;;;13.93;45.50
62592;BME280;48659;41.622;2.276;2022-12-18T12:17:44;100927.67;;;14.20;44.27
62592;BME280;48659;41.622;2.276;2022-12-18T12:20:20;100919.09;;;15.17;42.94
62592;BME280;48659;41.622;2.276;2022-12-18T12:22:55;100920.01;;;13.98;43.75
62592;BME280;48659;41.622;2.276;2022-12-18T12:25:39;100915.60;;;13.47;45.28
62592;BME280;48659;41.622;2.276;2022-12-18T12:28:19;100907.83;;;14.59;43.78
62592;BME280;48659;41.622;2.276;2022-12-18T12:30:57;100906.32;;;15.44;42.35
62592;BME280;48659;41.622;2.276;2022-12-18T12:33:38;100907.34;;;13.76;44.20
62592;BME280;48659;41.622;2.276;2022-12-18T12:36:13;100907.68;;;14.60;44.21
62592;BME280;48659;41.622;2.276;2022-12-18T12:38:47;100905.89;;;14.57;43.16
62592;BME280;48659;41.622;2.276;2022-12-18T12:41:19;100903.82;;;15.34;43.63
62592;BME280;48659;41.622;2.276;2022-12-18T12:43:48;100900.58;;;15.03;42.98
62592;BME280;48659;41.622;2.276;2022-12-18T12:46:18;100898.88;;;14.40;44.79
62592;BME280;48659;41.622;2.276;2022-12-18T12:48:48;100885.29;;;15.47;44.03
62592;BME280;48659;41.622;2.276;2022-12-18T12:51:19;100881.98;;;15.20;42.98
62592;BME280;48659;41.622;2.276;2022-12-18T12:53:48;100883.97;;;14.96;43.06
62592;BME280;48659;41.622;2.276;2022-12-18T12:56:18;100893.67;;;14.24;45.07
62592;BME280;48659;41.622;2.276;2022-12-18T12:58:52;100891.99;;;15.09;43.65
62592;BME280;48659;41.622;2.276;2022-12-18T13:01:28;100888.91;;;14.49;45.03
62592;BME280;48659;41.622;2.276;2022-12-18T13:04:12;100885.37;;;14.74;44.05
62592;BME280;48659;41.622;2.276;2022-12-18T13:06:50;100887.42;;;14.93;44.67
62592;BME280;48659;41.622;2.276;2022-12-18T13:09:21;100886.78;;;13.59;46.78
62592;BME280;48659;41.622;2.276;2022-12-18T13:11:49;100884.10;;;14.69;44.96
62592;BME280;48659;41.622;2.276;2022-12-18T13:14:22;100881.34;;;15.44;45.01